createdAt,value
2018-09-07T00:01:00.178Z,15.50
2018-09-07T00:03:29.322Z,15.50
2018-09-07T00:06:11.168Z,15.50
2018-09-07T00:08:39.558Z,15.50
2018-09-07T00:11:07.962Z,15.50
2018-09-07T00:13:36.343Z,15.50
2018-09-07T00:16:04.649Z,15.50
2018-09-07T00:18:33.024Z,15.50
2018-09-07T00:21:01.635Z,15.50
2018-09-07T00:23:30.060Z,15.50
2018-09-07T00:25:58.484Z,15.50
2018-09-07T00:28:26.915Z,15.50
2018-09-07T00:30:55.400Z,15.50
2018-09-07T00:33:23.873Z,15.60
2018-09-07T00:35:52.360Z,15.50
2018-09-07T00:38:20.777Z,15.50
2018-09-07T00:40:49.157Z,15.50
2018-09-07T00:43:17.622Z,15.60
2018-09-07T00:45:54.845Z,15.50
2018-09-07T00:48:23.260Z,15.50
2018-09-07T00:50:51.802Z,15.50
2018-09-07T00:53:20.245Z,15.60
2018-09-07T00:55:48.701Z,15.50
2018-09-07T00:58:17.243Z,15.50
2018-09-07T01:00:45.780Z,15.50
2018-09-07T01:03:14.293Z,15.40
2018-09-07T01:05:42.701Z,15.40
2018-09-07T01:08:10.999Z,15.40
2018-09-07T01:10:39.483Z,15.30
2018-09-07T01:13:08.307Z,15.30
2018-09-07T01:15:36.737Z,15.30
2018-09-07T01:18:05.079Z,15.30
2018-09-07T01:20:33.647Z,15.30
2018-09-07T01:23:02.103Z,15.30
2018-09-07T01:25:40.699Z,15.30
2018-09-07T01:28:10.447Z,15.30
2018-09-07T01:30:38.826Z,15.30
2018-09-07T01:33:07.428Z,15.30
2018-09-07T01:35:35.913Z,15.30
2018-09-07T01:38:42.036Z,15.30
2018-09-07T01:41:10.429Z,15.40
2018-09-07T01:43:38.793Z,15.40
2018-09-07T01:46:07.239Z,15.30
2018-09-07T01:48:35.653Z,15.30
2018-09-07T01:51:12.607Z,15.40
2018-09-07T01:53:41.129Z,15.30
2018-09-07T01:56:09.507Z,15.40
2018-09-07T01:58:40.658Z,15.30
2018-09-07T02:01:08.925Z,15.40
2018-09-07T02:03:37.348Z,15.40
2018-09-07T02:06:05.686Z,15.40
2018-09-07T02:08:34.164Z,15.30
2018-09-07T02:11:02.626Z,15.30
2018-09-07T02:13:31.918Z,15.40
2018-09-07T02:16:00.283Z,15.40
2018-09-07T02:18:30.470Z,15.40
2018-09-07T02:20:58.911Z,15.40
2018-09-07T02:23:27.308Z,15.40
2018-09-07T02:25:55.738Z,15.40
2018-09-07T02:28:24.135Z,15.40
2018-09-07T02:30:52.523Z,15.40
2018-09-07T02:33:20.944Z,15.40
2018-09-07T02:35:49.315Z,15.40
2018-09-07T02:38:17.763Z,15.40
2018-09-07T02:40:46.343Z,15.40
2018-09-07T02:43:14.691Z,15.40
2018-09-07T02:45:43.174Z,15.40
2018-09-07T02:48:11.587Z,15.40
2018-09-07T02:50:39.977Z,15.40
2018-09-07T02:53:08.423Z,15.40
2018-09-07T02:55:38.194Z,15.40
2018-09-07T02:58:06.701Z,15.40
2018-09-07T03:00:35.211Z,15.40
2018-09-07T03:03:03.771Z,15.40
2018-09-07T03:05:32.323Z,15.40
2018-09-07T03:08:00.663Z,15.40
2018-09-07T03:10:29.338Z,15.40
2018-09-07T03:12:57.798Z,15.40
2018-09-07T03:15:26.322Z,15.40
2018-09-07T03:17:55.031Z,15.40
2018-09-07T03:20:23.903Z,15.30
2018-09-07T03:22:52.172Z,15.30
2018-09-07T03:25:20.583Z,15.30
2018-09-07T03:27:49.504Z,15.30
2018-09-07T03:30:17.931Z,15.30
2018-09-07T03:32:46.655Z,15.30
2018-09-07T03:35:14.968Z,15.30
2018-09-07T03:37:43.464Z,15.30
2018-09-07T03:40:11.930Z,15.20
2018-09-07T03:42:40.404Z,15.20
2018-09-07T03:45:08.832Z,15.20
2018-09-07T03:47:37.159Z,15.20
2018-09-07T03:50:05.566Z,15.20
2018-09-07T03:55:31.042Z,15.10
2018-09-07T03:57:59.628Z,15.10
2018-09-07T04:00:28.018Z,15.10
2018-09-07T04:02:56.463Z,15.10
2018-09-07T04:05:24.864Z,15.10
2018-09-07T04:07:53.243Z,15.10
2018-09-07T04:10:21.613Z,15.10
2018-09-07T04:12:50.165Z,15.00
2018-09-07T04:15:18.539Z,15.00
2018-09-07T04:17:47.151Z,15.00
2018-09-07T04:20:15.622Z,15.00
2018-09-07T04:22:44.062Z,15.00
2018-09-07T04:25:12.540Z,15.00
2018-09-07T04:27:41.432Z,15.00
2018-09-07T04:30:15.029Z,15.00
2018-09-07T04:32:47.066Z,14.90
2018-09-07T04:35:15.511Z,14.90
2018-09-07T04:37:43.992Z,14.90
2018-09-07T04:40:12.420Z,14.90
2018-09-07T04:42:41.088Z,14.90
2018-09-07T04:45:09.611Z,14.90
2018-09-07T04:47:37.977Z,14.90
2018-09-07T04:50:06.421Z,14.90
2018-09-07T04:52:34.779Z,14.80
2018-09-07T04:55:04.536Z,14.80
2018-09-07T04:57:33.010Z,14.80
2018-09-07T05:00:02.014Z,14.80
2018-09-07T05:02:30.494Z,14.90
2018-09-07T05:04:58.950Z,14.90
2018-09-07T05:07:28.681Z,14.90
2018-09-07T05:09:57.292Z,14.90
2018-09-07T05:20:59.059Z,14.90
2018-09-07T05:23:27.378Z,15.00
2018-09-07T05:25:55.793Z,15.00
2018-09-07T05:28:24.081Z,15.00
2018-09-07T05:30:52.638Z,15.00
2018-09-07T05:33:20.990Z,15.00
2018-09-07T05:35:49.404Z,15.00
2018-09-07T05:38:38.687Z,15.00
2018-09-07T05:41:07.237Z,15.00
2018-09-07T05:43:35.614Z,15.00
2018-09-07T05:46:04.251Z,15.00
2018-09-07T05:48:32.751Z,15.10
2018-09-07T05:51:01.083Z,15.10
2018-09-07T05:53:29.415Z,15.10
2018-09-07T05:55:57.891Z,15.10
2018-09-07T05:58:26.342Z,15.10
2018-09-07T06:00:54.798Z,15.20
2018-09-07T06:03:23.309Z,15.10
2018-09-07T06:05:51.692Z,15.10
2018-09-07T06:08:20.299Z,15.20
2018-09-07T06:10:48.681Z,15.20
2018-09-07T06:13:17.064Z,15.20
2018-09-07T06:15:45.884Z,15.20
2018-09-07T06:18:14.109Z,15.20
2018-09-07T06:20:42.816Z,15.20
2018-09-07T06:23:11.144Z,15.30
2018-09-07T06:25:39.513Z,15.30
2018-09-07T06:28:07.902Z,15.40
2018-09-07T06:30:36.667Z,15.50
2018-09-07T06:33:05.062Z,15.60
2018-09-07T06:35:33.315Z,15.70
2018-09-07T06:38:01.723Z,15.80
2018-09-07T06:40:30.523Z,15.80
2018-09-07T06:45:49.535Z,15.80
2018-09-07T06:48:17.838Z,15.90
2018-09-07T06:50:46.449Z,15.90
2018-09-07T06:53:14.902Z,16.00
2018-09-07T06:55:43.278Z,16.00
2018-09-07T06:58:11.781Z,16.00
2018-09-07T07:03:31.622Z,16.10
2018-09-07T07:05:59.894Z,16.10
2018-09-07T07:08:28.539Z,16.10
2018-09-07T07:10:56.934Z,16.20
2018-09-07T07:13:25.415Z,16.20
2018-09-07T07:15:53.874Z,16.30
2018-09-07T07:18:22.258Z,16.40
2018-09-07T07:20:50.711Z,16.40
2018-09-07T07:23:19.125Z,16.50
2018-09-07T07:25:47.394Z,16.60
2018-09-07T07:28:15.714Z,16.70
2018-09-07T07:30:45.255Z,16.70
2018-09-07T07:33:21.131Z,16.70
2018-09-07T07:35:49.479Z,16.70
2018-09-07T07:38:17.856Z,16.70
2018-09-07T07:40:46.230Z,16.70
2018-09-07T07:43:14.513Z,16.70
2018-09-07T07:45:42.862Z,16.70
2018-09-07T07:48:11.109Z,16.70
2018-09-07T07:50:39.462Z,16.80
2018-09-07T07:53:08.187Z,16.80
2018-09-07T07:55:36.692Z,16.80
2018-09-07T07:58:05.240Z,16.80
2018-09-07T08:00:33.644Z,16.80
2018-09-07T08:03:01.915Z,16.80
2018-09-07T08:05:30.204Z,16.80
2018-09-07T08:07:58.678Z,16.70
2018-09-07T08:10:26.910Z,16.70
2018-09-07T08:12:55.186Z,16.70
2018-09-07T08:15:23.398Z,16.70
2018-09-07T08:17:51.750Z,16.60
2018-09-07T08:20:20.073Z,16.60
2018-09-07T08:22:48.477Z,16.60
2018-09-07T08:25:16.957Z,16.60
2018-09-07T08:27:45.324Z,16.60
2018-09-07T08:30:13.860Z,16.60
2018-09-07T08:32:42.366Z,16.50
2018-09-07T08:35:10.663Z,16.50
2018-09-07T08:37:39.263Z,16.50
2018-09-07T08:40:07.751Z,16.40
2018-09-07T08:42:36.251Z,16.40
2018-09-07T08:45:04.802Z,16.30
2018-09-07T08:47:33.488Z,16.30
2018-09-07T08:50:01.984Z,16.20
2018-09-07T08:52:30.471Z,16.20
2018-09-07T08:54:59.204Z,16.20
2018-09-07T08:57:27.643Z,16.10
2018-09-07T08:59:57.588Z,16.10
2018-09-07T09:02:25.856Z,16.00
2018-09-07T09:04:54.164Z,16.00
2018-09-07T09:07:22.426Z,15.90
2018-09-07T09:09:50.922Z,15.80
2018-09-07T09:12:19.281Z,15.80
2018-09-07T09:14:47.717Z,15.70
2018-09-07T09:17:21.110Z,15.70
2018-09-07T09:19:49.597Z,15.70
2018-09-07T09:22:17.977Z,15.70
2018-09-07T09:24:46.363Z,15.70
2018-09-07T09:27:14.930Z,15.60
2018-09-07T09:35:45.264Z,15.60
2018-09-07T09:38:13.749Z,15.60
2018-09-07T09:40:42.355Z,15.60
2018-09-07T09:48:56.130Z,15.70
2018-09-07T09:51:24.557Z,15.70
2018-09-07T09:53:52.979Z,15.70
2018-09-07T09:56:21.523Z,15.70
2018-09-07T09:58:53.923Z,15.70
2018-09-07T10:01:28.132Z,15.70
2018-09-07T10:04:02.487Z,15.60
2018-09-07T10:06:30.802Z,15.60
2018-09-07T10:08:59.278Z,15.70
2018-09-07T10:11:27.730Z,15.80
2018-09-07T10:13:56.347Z,15.80
2018-09-07T10:16:25.048Z,15.90
2018-09-07T10:30:21.100Z,16.10
2018-09-07T10:32:49.502Z,16.30
2018-09-07T10:35:17.967Z,16.60
2018-09-07T10:37:46.477Z,16.80
2018-09-07T10:40:15.018Z,16.90
2018-09-07T10:42:43.839Z,17.00
2018-09-07T10:45:12.428Z,17.00
2018-09-07T10:47:41.865Z,17.00
2018-09-07T10:50:10.270Z,17.00
2018-09-07T10:52:38.852Z,17.00
2018-09-07T10:55:07.383Z,17.00
2018-09-07T10:57:36.057Z,17.00
2018-09-07T11:00:04.544Z,17.00
2018-09-07T11:02:33.130Z,17.10
2018-09-07T11:05:01.782Z,17.20
2018-09-07T11:07:30.719Z,17.30
2018-09-07T11:09:59.084Z,17.40
2018-09-07T11:21:09.950Z,17.50
2018-09-07T11:23:38.291Z,17.50
2018-09-07T11:26:06.777Z,17.50
2018-09-07T11:31:26.285Z,17.50
2018-09-07T11:33:54.603Z,17.50
2018-09-07T11:42:05.171Z,17.50
2018-09-07T11:44:33.597Z,17.50
2018-09-07T11:47:10.599Z,17.60
2018-09-07T11:49:39.101Z,17.60
2018-09-07T11:52:07.519Z,17.60
2018-09-07T11:54:35.870Z,17.60
2018-09-07T11:57:04.391Z,17.60
2018-09-07T11:59:32.686Z,17.70
2018-09-07T12:05:03.451Z,17.90
2018-09-07T12:07:32.709Z,18.00
2018-09-07T12:10:01.031Z,18.00
2018-09-07T12:12:29.426Z,18.10
2018-09-07T12:14:57.583Z,18.10
2018-09-07T12:20:17.471Z,17.90
2018-09-07T12:22:45.766Z,17.80
2018-09-07T12:25:14.035Z,17.70
2018-09-07T12:27:42.495Z,17.50
2018-09-07T12:30:10.822Z,17.40
2018-09-07T12:32:55.879Z,17.40
2018-09-07T12:35:27.078Z,17.20
2018-09-07T12:37:55.456Z,17.10
2018-09-07T12:40:23.830Z,17.00
2018-09-07T12:42:52.185Z,16.90
2018-09-07T12:45:21.337Z,16.80
2018-09-07T12:47:51.167Z,16.80
2018-09-07T12:50:19.559Z,16.80
2018-09-07T12:52:48.001Z,16.70
2018-09-07T12:55:16.645Z,16.70
2018-09-07T12:57:45.028Z,16.70
2018-09-07T13:00:13.399Z,16.70
2018-09-07T13:02:41.903Z,16.60
2018-09-07T13:08:18.318Z,16.50
2018-09-07T13:10:46.704Z,16.50
2018-09-07T13:13:15.193Z,16.50
2018-09-07T13:15:43.565Z,16.50
2018-09-07T13:18:12.289Z,16.50
2018-09-07T13:20:40.610Z,16.40
2018-09-07T13:23:09.074Z,16.40
2018-09-07T13:25:37.531Z,16.40
2018-09-07T13:28:05.861Z,16.40
2018-09-07T13:30:57.401Z,16.40
2018-09-07T13:33:27.629Z,16.40
2018-09-07T13:35:56.182Z,16.40
2018-09-07T13:38:24.542Z,16.30
2018-09-07T13:40:52.816Z,16.30
2018-09-07T13:43:21.899Z,16.30
2018-09-07T13:46:00.187Z,16.40
2018-09-07T13:48:28.830Z,16.50
2018-09-07T13:51:00.265Z,16.60
2018-09-07T13:53:29.745Z,16.60
2018-09-07T13:55:58.277Z,16.60
2018-09-07T13:58:26.792Z,16.60
2018-09-07T14:00:55.263Z,16.70
2018-09-07T14:12:02.984Z,16.80
2018-09-07T14:14:36.206Z,16.80
2018-09-07T14:17:04.877Z,16.90
2018-09-07T14:19:33.200Z,17.00
2018-09-07T14:22:01.525Z,17.20
2018-09-07T14:24:30.252Z,17.20
2018-09-07T14:26:58.552Z,17.30
2018-09-07T14:29:27.007Z,17.30
2018-09-07T14:31:57.477Z,17.40
2018-09-07T14:34:25.814Z,17.50
2018-09-07T14:36:54.118Z,17.60
2018-09-07T14:39:22.403Z,17.60
2018-09-07T14:41:51.010Z,17.60
2018-09-07T14:44:19.653Z,17.60
2018-09-07T14:46:48.268Z,17.70
2018-09-07T14:52:07.898Z,17.80
2018-09-07T14:54:36.373Z,17.70
2018-09-07T14:57:05.526Z,17.70
2018-09-07T15:02:30.747Z,17.80
2018-09-07T15:04:59.026Z,17.90
2018-09-07T15:07:27.414Z,18.10
2018-09-07T15:09:55.769Z,18.10
2018-09-07T15:12:24.151Z,18.00
2018-09-07T15:14:52.399Z,18.00
2018-09-07T15:17:20.731Z,17.90
2018-09-07T15:19:49.033Z,18.00
2018-09-07T15:22:17.559Z,18.10
2018-09-07T15:24:46.447Z,18.20
2018-09-07T15:27:14.759Z,18.10
2018-09-07T15:29:43.084Z,18.10
2018-09-07T15:32:17.367Z,18.10
2018-09-07T15:34:45.639Z,18.30
2018-09-07T15:37:14.096Z,18.40
2018-09-07T15:39:42.722Z,18.50
2018-09-07T15:42:11.143Z,18.50
2018-09-07T15:50:24.671Z,18.40
2018-09-07T15:52:52.990Z,18.30
2018-09-07T15:55:21.864Z,18.20
2018-09-07T15:57:50.471Z,18.20
2018-09-07T16:00:18.877Z,18.10
2018-09-07T16:05:38.241Z,18.00
2018-09-07T16:08:06.575Z,18.00
2018-09-07T16:10:36.249Z,17.90
2018-09-07T16:13:04.713Z,17.80
2018-09-07T16:15:33.070Z,17.60
2018-09-07T16:20:56.030Z,17.30
2018-09-07T16:23:24.383Z,17.30
2018-09-07T16:25:52.783Z,17.30
2018-09-07T16:28:21.591Z,17.20
2018-09-07T16:30:50.035Z,17.10
2018-09-07T16:33:18.350Z,17.10
2018-09-07T16:35:46.710Z,17.10
2018-09-07T16:38:15.046Z,17.00
2018-09-07T16:40:43.414Z,17.00
2018-09-07T16:43:11.698Z,17.00
2018-09-07T16:45:40.059Z,16.90
2018-09-07T16:48:08.517Z,16.90
2018-09-07T16:53:33.983Z,16.80
2018-09-07T16:56:02.530Z,16.80
2018-09-07T16:58:31.190Z,16.70
2018-09-07T17:06:45.488Z,16.50
2018-09-07T17:09:13.782Z,16.50
2018-09-07T17:11:42.156Z,16.40
2018-09-07T17:14:10.614Z,16.40
2018-09-07T17:16:38.930Z,16.40
2018-09-07T17:19:07.582Z,16.30
2018-09-07T17:21:41.734Z,16.20
2018-09-07T17:24:10.006Z,16.20
2018-09-07T17:26:38.177Z,16.10
2018-09-07T17:29:06.495Z,16.10
2018-09-07T17:31:34.702Z,16.00
2018-09-07T17:34:02.963Z,15.90
2018-09-07T17:36:31.358Z,15.90
2018-09-07T17:39:12.930Z,15.80
2018-09-07T17:41:41.257Z,15.70
2018-09-07T17:44:10.180Z,15.70
2018-09-07T17:46:38.837Z,15.60
2018-09-07T17:49:07.352Z,15.50
2018-09-07T17:51:35.985Z,15.50
2018-09-07T18:05:46.803Z,15.20
2018-09-07T18:08:15.176Z,15.10
2018-09-07T18:10:43.517Z,15.10
2018-09-07T18:13:11.904Z,15.00
2018-09-07T18:15:40.260Z,15.00
2018-09-07T18:18:09.031Z,14.90
2018-09-07T18:20:37.402Z,14.90
2018-09-07T18:23:06.006Z,14.80
2018-09-07T18:25:34.446Z,14.80
2018-09-07T18:28:02.840Z,14.70
2018-09-07T18:30:31.224Z,14.70
2018-09-07T18:32:59.793Z,14.60
2018-09-07T18:35:28.587Z,14.60
2018-09-07T18:37:56.812Z,14.50
2018-09-07T18:40:25.132Z,14.50
2018-09-07T18:42:53.531Z,14.40
2018-09-07T18:45:21.979Z,14.40
2018-09-07T18:48:03.751Z,14.30
2018-09-07T18:50:32.273Z,14.30
2018-09-07T18:53:00.663Z,14.20
2018-09-07T18:55:28.999Z,14.20
2018-09-07T18:57:57.461Z,14.10
2018-09-07T19:00:25.931Z,14.10
2018-09-07T19:02:54.443Z,14.00
2018-09-07T19:05:22.789Z,14.00
2018-09-07T19:07:51.124Z,13.90
2018-09-07T19:10:19.573Z,13.90
2018-09-07T19:12:48.269Z,13.80
2018-09-07T19:15:16.516Z,13.80
2018-09-07T19:17:45.056Z,13.70
2018-09-07T19:20:13.440Z,13.60
2018-09-07T19:22:41.728Z,13.60
2018-09-07T19:25:10.060Z,13.50
2018-09-07T19:27:39.427Z,13.50
2018-09-07T19:30:08.028Z,13.40
2018-09-07T19:32:37.075Z,13.40
2018-09-07T19:35:05.588Z,13.30
2018-09-07T19:37:48.331Z,13.30
2018-09-07T19:40:16.742Z,13.20
2018-09-07T19:42:45.076Z,13.20
2018-09-07T19:45:13.399Z,13.10
2018-09-07T19:47:41.911Z,13.10
2018-09-07T19:50:10.336Z,13.00
2018-09-07T19:52:38.720Z,13.00
2018-09-07T19:55:07.472Z,12.90
2018-09-07T19:57:35.832Z,12.90
2018-09-07T20:00:04.284Z,12.90
2018-09-07T20:02:32.696Z,12.80
2018-09-07T20:05:01.277Z,12.80
2018-09-07T20:07:29.770Z,12.70
2018-09-07T20:09:58.279Z,12.70
2018-09-07T20:12:26.662Z,12.70
2018-09-07T20:14:55.088Z,12.60
2018-09-07T20:17:29.447Z,12.60
2018-09-07T20:19:58.009Z,12.50
2018-09-07T20:22:26.343Z,12.50
2018-09-07T20:24:54.791Z,12.50
2018-09-07T20:27:23.162Z,12.40
2018-09-07T20:29:51.707Z,12.40
2018-09-07T20:32:22.480Z,12.30
2018-09-07T20:34:51.018Z,12.30
2018-09-07T20:37:19.549Z,12.20
2018-09-07T20:39:48.269Z,12.20
2018-09-07T20:42:16.850Z,12.10
2018-09-07T20:44:45.303Z,12.10
2018-09-07T20:47:13.726Z,12.10
2018-09-07T20:49:46.892Z,12.00
2018-09-07T20:52:15.539Z,12.00
2018-09-07T20:54:44.278Z,11.90
2018-09-07T20:57:12.996Z,11.90
2018-09-07T20:59:52.250Z,11.80
2018-09-07T21:02:20.690Z,11.80
2018-09-07T21:04:49.112Z,11.70
2018-09-07T21:07:17.689Z,11.70
2018-09-07T21:09:46.157Z,11.70
2018-09-07T21:12:14.602Z,11.70
2018-09-07T21:14:43.162Z,11.60
2018-09-07T21:17:11.765Z,11.60
2018-09-07T21:19:40.313Z,11.50
2018-09-07T21:22:09.130Z,11.50
2018-09-07T21:24:37.611Z,11.40
2018-09-07T21:27:06.047Z,11.40
2018-09-07T21:29:34.462Z,11.30
2018-09-07T21:32:03.078Z,11.30
2018-09-07T21:34:31.599Z,11.20
2018-09-07T21:37:00.065Z,11.20
2018-09-07T21:39:29.072Z,11.20
2018-09-07T21:41:57.622Z,11.10
2018-09-07T21:44:26.138Z,11.10
2018-09-07T21:46:54.484Z,11.00
2018-09-07T21:49:23.344Z,11.00
2018-09-07T21:51:51.754Z,11.00
2018-09-07T21:54:20.095Z,10.90
2018-09-07T21:56:48.488Z,10.90
2018-09-07T22:13:39.396Z,10.60
2018-09-07T22:16:07.915Z,10.60
2018-09-07T22:18:36.395Z,10.50
2018-09-07T22:21:04.924Z,10.50
2018-09-07T22:23:33.736Z,10.50
2018-09-07T22:26:02.361Z,10.40
2018-09-07T22:31:21.316Z,10.30
2018-09-07T22:33:49.756Z,10.30
2018-09-07T22:36:18.159Z,10.30
2018-09-07T22:38:51.619Z,10.30
2018-09-07T22:41:20.157Z,10.20
2018-09-07T22:43:48.604Z,10.20
2018-09-07T22:46:16.956Z,10.10
2018-09-07T22:48:45.555Z,10.10
2018-09-07T22:51:15.309Z,10.10
2018-09-07T22:53:43.735Z,10.00
2018-09-07T22:56:12.357Z,10.00
2018-09-07T22:58:40.854Z,10.00
2018-09-07T23:01:09.586Z,9.90
2018-09-07T23:03:38.627Z,9.90
2018-09-07T23:06:07.114Z,9.90
2018-09-07T23:08:35.584Z,9.80
2018-09-07T23:11:04.318Z,9.80
2018-09-07T23:13:32.822Z,9.80
2018-09-07T23:16:01.392Z,9.80
2018-09-07T23:18:29.831Z,9.70
2018-09-07T23:21:08.361Z,9.70
2018-09-07T23:23:36.719Z,9.70
2018-09-07T23:26:07.803Z,9.60
2018-09-07T23:37:20.293Z,9.50
2018-09-07T23:39:48.610Z,9.50
2018-09-07T23:42:17.162Z,9.40
2018-09-07T23:44:45.538Z,9.40
2018-09-07T23:47:14.033Z,9.40
2018-09-07T23:49:45.506Z,9.40
2018-09-07T23:52:15.050Z,9.30
2018-09-07T23:54:43.710Z,9.30
2018-09-07T23:57:12.789Z,9.30
2018-09-07T23:59:41.303Z,9.30
